createdAt,value
2017-06-01T00:00:41.465Z,1016.79
2017-06-01T00:01:43.151Z,1016.78
2017-06-01T00:02:44.994Z,1016.81
2017-06-01T00:03:46.753Z,1016.79
2017-06-01T00:04:49.677Z,1016.76
2017-06-01T00:05:53.585Z,1016.77
2017-06-01T00:06:56.128Z,1016.77
2017-06-01T00:07:58.529Z,1016.80
2017-06-01T00:09:01.884Z,1016.74
2017-06-01T00:10:04.394Z,1016.77
2017-06-01T00:11:06.007Z,1016.75
2017-06-01T00:12:07.740Z,1016.73
2017-06-01T00:13:09.500Z,1016.74
2017-06-01T00:14:11.245Z,1016.74
2017-06-01T00:15:12.879Z,1016.75
2017-06-01T00:16:14.559Z,1016.75
2017-06-01T00:17:16.274Z,1016.76
2017-06-01T00:18:18.022Z,1016.75
2017-06-01T00:19:19.697Z,1016.72
2017-06-01T00:20:21.410Z,1016.76
2017-06-01T00:21:23.164Z,1016.77
2017-06-01T00:22:24.886Z,1016.73
2017-06-01T00:23:26.659Z,1016.74
2017-06-01T00:24:28.406Z,1016.76
2017-06-01T00:25:30.082Z,1016.79
2017-06-01T00:26:31.824Z,1016.75
2017-06-01T00:27:33.551Z,1016.77
2017-06-01T00:28:35.409Z,1016.75
2017-06-01T00:29:37.154Z,1016.74
2017-06-01T00:30:38.870Z,1016.75
2017-06-01T00:31:40.600Z,1016.75
2017-06-01T00:32:42.332Z,1016.78
2017-06-01T00:33:44.095Z,1016.77
2017-06-01T00:34:45.856Z,1016.77
2017-06-01T00:35:47.622Z,1016.74
2017-06-01T00:36:49.316Z,1016.75
2017-06-01T00:37:51.021Z,1016.73
2017-06-01T00:38:52.754Z,1016.66
2017-06-01T00:39:54.438Z,1016.65
2017-06-01T00:40:56.124Z,1016.63
2017-06-01T00:41:57.797Z,1016.64
2017-06-01T00:42:59.446Z,1016.64
2017-06-01T00:44:01.200Z,1016.61
2017-06-01T00:45:02.833Z,1016.67
2017-06-01T00:46:04.512Z,1016.66
2017-06-01T00:47:06.195Z,1016.63
2017-06-01T00:48:07.930Z,1016.62
2017-06-01T00:49:49.165Z,1016.32
2017-06-01T00:50:50.834Z,1016.51
2017-06-01T00:51:52.495Z,1016.58
2017-06-01T00:52:54.174Z,1016.62
2017-06-01T00:53:55.876Z,1016.67
2017-06-01T00:54:57.629Z,1016.63
2017-06-01T00:55:59.277Z,1016.64
2017-06-01T00:57:01.014Z,1016.65
2017-06-01T00:58:02.663Z,1016.68
2017-06-01T00:59:04.318Z,1016.67
2017-06-01T01:00:05.997Z,1016.70
2017-06-01T01:01:07.654Z,1016.72
2017-06-01T01:02:09.381Z,1016.67
2017-06-01T01:03:11.040Z,1016.70
2017-06-01T01:04:12.693Z,1016.68
2017-06-01T01:05:14.318Z,1016.69
2017-06-01T01:06:16.008Z,1016.72
2017-06-01T01:07:17.641Z,1016.73
2017-06-01T01:08:19.308Z,1016.74
2017-06-01T01:09:21.035Z,1016.73
2017-06-01T01:10:22.791Z,1016.77
2017-06-01T01:11:24.303Z,1016.74
2017-06-01T01:12:25.959Z,1016.76
2017-06-01T01:13:27.598Z,1016.78
2017-06-01T01:14:29.272Z,1016.74
2017-06-01T01:15:30.989Z,1016.74
2017-06-01T01:16:32.614Z,1016.73
2017-06-01T01:17:34.270Z,1016.73
2017-06-01T01:18:35.896Z,1016.73
2017-06-01T01:19:37.552Z,1016.71
2017-06-01T01:20:39.283Z,1016.71
2017-06-01T01:21:40.942Z,1016.69
2017-06-01T01:22:42.621Z,1016.69
2017-06-01T01:23:44.288Z,1016.71
2017-06-01T01:24:45.918Z,1016.67
2017-06-01T01:25:47.610Z,1016.69
2017-06-01T01:26:49.284Z,1016.70
2017-06-01T01:27:50.936Z,1016.69
2017-06-01T01:28:52.580Z,1016.69
2017-06-01T01:29:54.214Z,1016.62
2017-06-01T01:30:55.869Z,1016.60
2017-06-01T01:32:37.075Z,1016.41
2017-06-01T01:33:38.732Z,1016.57
2017-06-01T01:34:40.457Z,1016.63
2017-06-01T01:35:42.122Z,1016.69
2017-06-01T01:36:43.754Z,1016.65
2017-06-01T01:37:45.525Z,1016.66
2017-06-01T01:38:47.161Z,1016.61
2017-06-01T01:39:48.818Z,1016.61
2017-06-01T01:40:50.486Z,1016.65
2017-06-01T01:41:52.146Z,1016.64
2017-06-01T01:42:53.802Z,1016.64
2017-06-01T01:43:55.448Z,1016.64
2017-06-01T01:44:57.089Z,1016.67
2017-06-01T01:45:58.807Z,1016.63
2017-06-01T01:47:00.499Z,1016.67
2017-06-01T01:48:02.222Z,1016.70
2017-06-01T01:49:03.910Z,1016.65
2017-06-01T01:50:05.570Z,1016.69
2017-06-01T01:51:07.335Z,1016.70
2017-06-01T01:52:09.001Z,1016.70
2017-06-01T01:53:10.732Z,1016.67
2017-06-01T01:54:12.437Z,1016.70
2017-06-01T01:55:14.111Z,1016.65
2017-06-01T01:56:15.830Z,1016.64
2017-06-01T01:57:17.527Z,1016.63
2017-06-01T01:58:19.272Z,1016.67
2017-06-01T01:59:20.927Z,1016.64
2017-06-01T02:00:22.580Z,1016.69
2017-06-01T02:01:24.281Z,1016.71
2017-06-01T02:02:25.908Z,1016.72
2017-06-01T02:03:27.657Z,1016.72
2017-06-01T02:04:29.374Z,1016.73
2017-06-01T02:05:30.994Z,1016.76
2017-06-01T02:06:32.661Z,1016.73
2017-06-01T02:07:34.277Z,1016.76
2017-06-01T02:08:36.039Z,1016.71
2017-06-01T02:09:37.717Z,1016.72
2017-06-01T02:10:39.436Z,1016.74
2017-06-01T02:11:41.106Z,1016.71
2017-06-01T02:12:42.831Z,1016.77
2017-06-01T02:13:44.487Z,1016.76
2017-06-01T02:14:46.215Z,1016.70
2017-06-01T02:15:47.858Z,1016.73
2017-06-01T02:16:49.504Z,1016.71
2017-06-01T02:17:51.124Z,1016.67
2017-06-01T02:18:52.738Z,1016.68
2017-06-01T02:19:54.383Z,1016.67
2017-06-01T02:20:56.032Z,1016.64
2017-06-01T02:21:57.694Z,1016.66
2017-06-01T02:22:59.308Z,1016.69
2017-06-01T02:24:40.452Z,1016.40
2017-06-01T02:25:42.066Z,1016.54
2017-06-01T02:26:43.753Z,1016.61
2017-06-01T02:27:45.364Z,1016.63
2017-06-01T02:28:47.021Z,1016.63
2017-06-01T02:29:48.769Z,1016.64
2017-06-01T02:30:50.381Z,1016.62
2017-06-01T02:31:52.000Z,1016.60
2017-06-01T02:32:53.621Z,1016.62
2017-06-01T02:33:55.251Z,1016.62
2017-06-01T02:34:56.999Z,1016.63
2017-06-01T02:35:58.656Z,1016.63
2017-06-01T02:37:00.292Z,1016.62
2017-06-01T02:38:02.013Z,1016.59
2017-06-01T02:39:03.655Z,1016.58
2017-06-01T02:40:05.337Z,1016.55
2017-06-01T02:41:06.987Z,1016.55
2017-06-01T02:42:08.620Z,1016.53
2017-06-01T02:43:10.230Z,1016.53
2017-06-01T02:44:11.902Z,1016.54
2017-06-01T02:45:13.603Z,1016.52
2017-06-01T02:46:15.253Z,1016.52
2017-06-01T02:47:16.864Z,1016.50
2017-06-01T02:48:18.466Z,1016.51
2017-06-01T02:49:20.137Z,1016.50
2017-06-01T02:50:21.805Z,1016.51
2017-06-01T02:51:23.470Z,1016.52
2017-06-01T02:52:25.122Z,1016.53
2017-06-01T02:53:26.788Z,1016.56
2017-06-01T02:54:28.464Z,1016.57
2017-06-01T02:55:30.183Z,1016.57
2017-06-01T02:56:31.900Z,1016.59
2017-06-01T02:57:33.543Z,1016.59
2017-06-01T02:58:35.238Z,1016.62
2017-06-01T02:59:36.937Z,1016.61
2017-06-01T03:00:38.611Z,1016.63
2017-06-01T03:01:40.271Z,1016.63
2017-06-01T03:02:41.892Z,1016.65
2017-06-01T03:03:43.603Z,1016.66
2017-06-01T03:04:45.336Z,1016.67
2017-06-01T03:05:47.064Z,1016.63
2017-06-01T03:06:48.737Z,1016.65
2017-06-01T03:07:50.451Z,1016.68
2017-06-01T03:08:52.156Z,1016.68
2017-06-01T03:09:53.953Z,1016.67
2017-06-01T03:10:55.763Z,1016.69
2017-06-01T03:11:57.502Z,1016.70
2017-06-01T03:12:59.254Z,1016.70
2017-06-01T03:14:00.944Z,1016.70
2017-06-01T03:15:02.684Z,1016.73
2017-06-01T03:16:04.446Z,1016.72
2017-06-01T03:17:06.128Z,1016.71
2017-06-01T03:18:07.912Z,1016.75
2017-06-01T03:19:09.681Z,1016.77
2017-06-01T03:20:11.374Z,1016.78
2017-06-01T03:21:13.073Z,1016.78
2017-06-01T03:22:14.743Z,1016.74
2017-06-01T03:23:16.482Z,1016.75
2017-06-01T03:24:18.224Z,1016.75
2017-06-01T03:25:19.904Z,1016.71
2017-06-01T03:26:21.555Z,1016.74
2017-06-01T03:27:23.315Z,1016.74
2017-06-01T03:28:24.957Z,1016.73
2017-06-01T03:29:26.701Z,1016.72
2017-06-01T03:30:28.443Z,1016.73
2017-06-01T03:31:30.140Z,1016.72
2017-06-01T03:32:31.835Z,1016.73
2017-06-01T03:33:33.569Z,1016.71
2017-06-01T03:34:35.266Z,1016.71
2017-06-01T03:35:36.987Z,1016.71
2017-06-01T03:36:38.670Z,1016.72
2017-06-01T03:37:40.339Z,1016.73
2017-06-01T03:38:42.102Z,1016.72
2017-06-01T03:39:43.794Z,1016.73
2017-06-01T03:40:45.497Z,1016.74
2017-06-01T03:41:47.191Z,1016.78
2017-06-01T03:42:48.888Z,1016.78
2017-06-01T03:43:50.636Z,1016.81
2017-06-01T03:44:52.277Z,1016.78
2017-06-01T03:45:53.949Z,1016.80
2017-06-01T03:46:55.565Z,1016.80
2017-06-01T03:47:57.218Z,1016.80
2017-06-01T03:48:58.980Z,1016.83
2017-06-01T03:50:00.695Z,1016.83
2017-06-01T03:51:02.424Z,1016.81
2017-06-01T03:52:04.080Z,1016.84
2017-06-01T03:53:05.728Z,1016.85
2017-06-01T03:54:07.423Z,1016.85
2017-06-01T03:55:09.152Z,1016.86
2017-06-01T03:56:10.791Z,1016.87
2017-06-01T03:57:12.550Z,1016.88
2017-06-01T03:58:14.210Z,1016.89
2017-06-01T03:59:15.788Z,1016.92
2017-06-01T04:00:17.485Z,1016.95
2017-06-01T04:01:19.128Z,1016.95
2017-06-01T04:02:20.790Z,1016.99
2017-06-01T04:03:22.478Z,1017.01
2017-06-01T04:04:24.220Z,1017.01
2017-06-01T04:05:25.890Z,1017.04
2017-06-01T04:06:27.596Z,1017.09
2017-06-01T04:07:29.213Z,1017.06
2017-06-01T04:08:30.815Z,1017.06
2017-06-01T04:09:32.508Z,1017.12
2017-06-01T04:10:34.187Z,1017.12
2017-06-01T04:11:35.785Z,1017.13
2017-06-01T04:12:37.428Z,1017.18
2017-06-01T04:13:39.102Z,1017.17
2017-06-01T04:14:40.816Z,1017.22
2017-06-01T04:15:42.475Z,1017.23
2017-06-01T04:16:44.073Z,1017.25
2017-06-01T04:17:45.694Z,1017.26
2017-06-01T04:18:47.338Z,1017.31
2017-06-01T04:19:49.024Z,1017.47
2017-06-01T04:20:51.547Z,1017.72
2017-06-01T04:21:53.223Z,1018.06
2017-06-01T04:23:34.403Z,1017.96
2017-06-01T04:24:36.074Z,1018.09
2017-06-01T04:25:37.711Z,1018.16
2017-06-01T04:26:39.337Z,1018.11
2017-06-01T04:27:40.962Z,1018.16
2017-06-01T04:28:42.586Z,1018.12
2017-06-01T04:29:44.209Z,1018.13
2017-06-01T04:30:45.907Z,1018.14
2017-06-01T04:31:47.501Z,1018.08
2017-06-01T04:32:49.170Z,1018.09
2017-06-01T04:33:50.882Z,1018.09
2017-06-01T04:34:52.453Z,1018.13
2017-06-01T04:35:54.136Z,1018.13
2017-06-01T04:36:55.751Z,1018.07
2017-06-01T04:37:57.442Z,1018.08
2017-06-01T04:38:59.051Z,1018.09
2017-06-01T04:40:00.694Z,1018.16
2017-06-01T04:41:02.319Z,1018.07
2017-06-01T04:42:03.935Z,1018.12
2017-06-01T04:43:05.637Z,1018.13
2017-06-01T04:44:07.310Z,1018.15
2017-06-01T04:45:08.999Z,1018.17
2017-06-01T04:46:10.660Z,1018.11
2017-06-01T04:47:12.314Z,1018.15
2017-06-01T04:48:14.051Z,1018.19
2017-06-01T04:49:15.740Z,1018.20
2017-06-01T04:50:17.522Z,1018.25
2017-06-01T04:51:19.191Z,1018.25
2017-06-01T04:52:20.874Z,1018.29
2017-06-01T04:53:22.701Z,1018.29
2017-06-01T04:54:24.355Z,1018.29
2017-06-01T04:55:26.022Z,1018.28
2017-06-01T04:56:27.705Z,1018.31
2017-06-01T04:57:29.378Z,1018.34
2017-06-01T04:58:31.098Z,1018.29
2017-06-01T04:59:32.756Z,1018.35
2017-06-01T05:00:34.448Z,1018.32
2017-06-01T05:01:36.125Z,1018.34
2017-06-01T05:02:37.863Z,1018.35
2017-06-01T05:03:39.567Z,1018.35
2017-06-01T05:04:41.236Z,1018.36
2017-06-01T05:05:42.891Z,1018.31
2017-06-01T05:06:44.553Z,1018.42
2017-06-01T05:07:46.257Z,1018.39
2017-06-01T05:08:48.011Z,1018.47
2017-06-01T05:09:49.639Z,1018.39
2017-06-01T05:10:51.325Z,1018.45
2017-06-01T05:11:53.033Z,1018.50
2017-06-01T05:12:54.697Z,1018.49
2017-06-01T05:13:56.420Z,1018.58
2017-06-01T05:14:58.047Z,1018.68
2017-06-01T05:15:59.691Z,1018.67
2017-06-01T05:17:01.355Z,1018.77
2017-06-01T05:18:03.899Z,1018.99
2017-06-01T05:19:05.597Z,1019.19
2017-06-01T05:20:07.269Z,1019.31
2017-06-01T05:21:08.916Z,1019.47
2017-06-01T05:22:10.536Z,1019.57
2017-06-01T05:23:12.214Z,1019.74
2017-06-01T05:24:13.916Z,1019.99
2017-06-01T05:25:15.605Z,1020.20
2017-06-01T05:26:17.613Z,1020.67
2017-06-01T05:27:19.271Z,1020.83
2017-06-01T05:28:20.983Z,1020.71
2017-06-01T05:29:22.625Z,1020.66
2017-06-01T05:30:24.267Z,1020.67
2017-06-01T05:31:25.876Z,1020.69
2017-06-01T05:32:27.495Z,1020.53
2017-06-01T05:33:29.188Z,1020.59
2017-06-01T05:34:30.832Z,1020.61
2017-06-01T05:35:32.531Z,1020.48
2017-06-01T05:36:34.197Z,1020.39
2017-06-01T05:37:36.063Z,1020.41
2017-06-01T05:38:37.770Z,1020.64
2017-06-01T05:39:39.377Z,1020.67
2017-06-01T05:40:41.003Z,1020.62
2017-06-01T05:41:42.846Z,1020.54
2017-06-01T05:42:44.706Z,1020.38
2017-06-01T05:43:46.562Z,1020.31
2017-06-01T05:44:48.414Z,1020.30
2017-06-01T05:45:50.112Z,1020.25
2017-06-01T05:46:51.813Z,1020.08
2017-06-01T05:47:53.448Z,1020.04
2017-06-01T05:48:55.068Z,1019.82
2017-06-01T05:50:36.251Z,1018.28
2017-06-01T05:51:37.860Z,1019.27
2017-06-01T05:52:39.576Z,1019.65
2017-06-01T05:53:41.151Z,1019.52
2017-06-01T05:54:42.863Z,1019.60
2017-06-01T05:55:44.583Z,1019.80
2017-06-01T05:56:46.255Z,1019.87
2017-06-01T05:57:47.858Z,1020.17
2017-06-01T05:58:49.505Z,1020.43
2017-06-01T05:59:51.152Z,1020.50
2017-06-01T06:00:52.806Z,1020.44
2017-06-01T06:01:54.463Z,1020.69
2017-06-01T06:02:56.090Z,1020.77
2017-06-01T06:03:57.708Z,1020.81
2017-06-01T06:04:59.344Z,1021.05
2017-06-01T06:06:01.018Z,1021.42
2017-06-01T06:07:02.706Z,1021.79
2017-06-01T06:08:04.330Z,1020.93
2017-06-01T06:09:05.925Z,1020.98
2017-06-01T06:10:07.512Z,1021.35
2017-06-01T06:11:09.216Z,1021.26
2017-06-01T06:12:10.875Z,1021.10
2017-06-01T06:13:12.568Z,1021.01
2017-06-01T06:14:14.271Z,1020.93
2017-06-01T06:15:15.887Z,1021.15
2017-06-01T06:16:17.646Z,1021.61
2017-06-01T06:17:19.282Z,1021.88
2017-06-01T06:18:20.990Z,1021.66
2017-06-01T06:19:22.653Z,1021.19
2017-06-01T06:20:24.317Z,1021.27
2017-06-01T06:21:25.993Z,1021.59
2017-06-01T06:22:27.777Z,1021.79
2017-06-01T06:23:29.491Z,1021.81
2017-06-01T06:24:31.214Z,1021.94
2017-06-01T06:25:32.876Z,1022.06
2017-06-01T06:26:34.515Z,1022.08
2017-06-01T06:27:36.184Z,1022.08
2017-06-01T06:28:37.912Z,1021.90
2017-06-01T06:29:39.619Z,1021.78
2017-06-01T06:30:41.367Z,1022.08
2017-06-01T06:31:43.016Z,1022.40
2017-06-01T06:32:44.713Z,1022.42
2017-06-01T06:33:46.404Z,1022.58
2017-06-01T06:34:48.158Z,1022.76
2017-06-01T06:35:49.880Z,1022.78
2017-06-01T06:36:51.577Z,1022.88
2017-06-01T06:37:53.272Z,1022.95
2017-06-01T06:38:54.964Z,1023.09
2017-06-01T06:39:56.675Z,1023.19
2017-06-01T06:40:58.369Z,1023.32
2017-06-01T06:42:00.157Z,1023.40
2017-06-01T06:43:01.871Z,1023.57
2017-06-01T06:44:03.565Z,1023.78
2017-06-01T06:45:05.253Z,1023.92
2017-06-01T06:46:06.893Z,1023.99
2017-06-01T06:47:08.604Z,1024.21
2017-06-01T06:48:10.245Z,1024.30
2017-06-01T06:49:11.885Z,1024.18
2017-06-01T06:50:13.504Z,1023.92
2017-06-01T06:51:15.211Z,1024.05
2017-06-01T06:52:16.918Z,1024.21
2017-06-01T06:53:18.565Z,1024.19
2017-06-01T06:54:20.219Z,1024.10
2017-06-01T06:55:21.906Z,1024.06
2017-06-01T06:56:23.530Z,1023.99
2017-06-01T06:57:25.217Z,1023.83
2017-06-01T06:58:26.851Z,1023.68
2017-06-01T06:59:28.475Z,1023.28
2017-06-01T07:00:30.118Z,1023.01
2017-06-01T07:01:31.794Z,1023.25
2017-06-01T07:02:33.484Z,1023.25
2017-06-01T07:03:35.123Z,1023.17
2017-06-01T07:04:36.768Z,1023.05
2017-06-01T07:05:38.369Z,1022.90
2017-06-01T07:06:40.057Z,1022.80
2017-06-01T07:07:41.668Z,1022.64
2017-06-01T07:08:43.265Z,1022.54
2017-06-01T07:09:44.891Z,1022.28
2017-06-01T07:10:46.483Z,1021.98
2017-06-01T07:11:48.100Z,1021.79
2017-06-01T07:12:49.793Z,1021.61
2017-06-01T07:13:51.455Z,1021.38
2017-06-01T07:14:53.058Z,1021.18
2017-06-01T07:15:54.686Z,1021.19
2017-06-01T07:16:56.308Z,1021.31
2017-06-01T07:17:58.005Z,1021.31
2017-06-01T07:18:59.628Z,1021.24
2017-06-01T07:20:02.087Z,1021.14
2017-06-01T07:21:03.767Z,1021.00
2017-06-01T07:22:05.375Z,1020.97
2017-06-01T07:23:07.034Z,1020.86
2017-06-01T07:24:08.660Z,1020.74
2017-06-01T07:25:10.295Z,1020.63
2017-06-01T07:26:11.915Z,1020.60
2017-06-01T07:27:13.520Z,1020.54
2017-06-01T07:28:15.196Z,1020.46
2017-06-01T07:29:17.929Z,1020.33
2017-06-01T07:30:19.620Z,1020.23
2017-06-01T07:31:21.313Z,1020.19
2017-06-01T07:33:02.442Z,1019.93
2017-06-01T07:34:04.066Z,1020.08
2017-06-01T07:35:05.710Z,1020.14
2017-06-01T07:36:07.350Z,1020.15
2017-06-01T07:37:08.948Z,1020.16
2017-06-01T07:38:10.565Z,1020.15
2017-06-01T07:39:12.161Z,1020.10
2017-06-01T07:40:13.788Z,1020.03
2017-06-01T07:41:15.407Z,1019.97
2017-06-01T07:42:17.063Z,1019.88
2017-06-01T07:43:18.731Z,1019.82
2017-06-01T07:44:20.337Z,1019.88
2017-06-01T07:45:22.019Z,1019.88
2017-06-01T07:46:23.671Z,1019.92
2017-06-01T07:47:25.353Z,1019.94
2017-06-01T07:48:26.962Z,1019.91
2017-06-01T07:49:28.603Z,1019.95
2017-06-01T07:50:30.347Z,1019.92
2017-06-01T07:51:32.014Z,1019.90
2017-06-01T07:52:33.672Z,1019.86
2017-06-01T07:53:35.378Z,1019.88
2017-06-01T07:54:37.047Z,1019.88
2017-06-01T07:55:38.731Z,1019.93
2017-06-01T07:56:40.402Z,1020.02
2017-06-01T07:57:42.044Z,1019.99
2017-06-01T07:58:43.763Z,1019.93
2017-06-01T07:59:45.386Z,1019.89
2017-06-01T08:00:47.063Z,1019.94
2017-06-01T08:01:48.709Z,1020.04
2017-06-01T08:02:50.336Z,1020.03
2017-06-01T08:03:52.052Z,1020.10
2017-06-01T08:04:53.661Z,1020.15
2017-06-01T08:05:55.336Z,1020.27
2017-06-01T08:06:57.001Z,1020.40
2017-06-01T08:07:58.684Z,1020.47
2017-06-01T08:09:00.374Z,1020.41
2017-06-01T08:10:02.014Z,1020.41
2017-06-01T08:11:03.681Z,1020.33
2017-06-01T08:12:05.331Z,1020.38
2017-06-01T08:13:06.975Z,1020.36
2017-06-01T08:14:08.698Z,1020.33
2017-06-01T08:15:10.352Z,1020.28
2017-06-01T08:16:12.012Z,1020.24
2017-06-01T08:17:13.687Z,1020.31
2017-06-01T08:18:15.337Z,1020.36
2017-06-01T08:19:17.041Z,1020.34
2017-06-01T08:20:18.752Z,1020.33
2017-06-01T08:21:20.690Z,1020.20
2017-06-01T08:22:22.346Z,1020.07
2017-06-01T08:24:03.513Z,1019.65
2017-06-01T08:25:05.202Z,1019.73
2017-06-01T08:26:06.840Z,1019.65
2017-06-01T08:27:08.530Z,1019.63
2017-06-01T08:28:10.180Z,1019.72
2017-06-01T08:29:11.797Z,1019.76
2017-06-01T08:30:13.420Z,1019.76
2017-06-01T08:31:15.024Z,1019.74
2017-06-01T08:32:16.686Z,1019.69
2017-06-01T08:33:18.339Z,1019.67
2017-06-01T08:34:19.909Z,1019.67
2017-06-01T08:35:21.591Z,1019.62
2017-06-01T08:36:23.190Z,1019.53
2017-06-01T08:37:24.950Z,1019.39
2017-06-01T08:38:26.586Z,1019.40
2017-06-01T08:39:28.156Z,1019.29
2017-06-01T08:40:29.778Z,1019.17
2017-06-01T08:41:31.419Z,1019.07
2017-06-01T08:42:33.088Z,1019.02
2017-06-01T08:43:34.708Z,1018.92
2017-06-01T08:44:36.384Z,1018.94
2017-06-01T08:45:37.993Z,1018.93
2017-06-01T08:46:39.598Z,1018.75
2017-06-01T08:47:41.243Z,1018.61
2017-06-01T08:48:42.873Z,1018.50
2017-06-01T08:49:44.519Z,1018.48
2017-06-01T08:50:46.137Z,1018.51
2017-06-01T08:51:47.784Z,1018.50
2017-06-01T08:52:49.458Z,1018.53
2017-06-01T08:53:51.050Z,1018.49
2017-06-01T08:54:52.679Z,1018.46
2017-06-01T08:55:54.302Z,1018.41
2017-06-01T08:56:55.919Z,1018.30
2017-06-01T08:57:57.605Z,1018.25
2017-06-01T08:58:59.231Z,1018.25
2017-06-01T09:00:00.904Z,1018.21
2017-06-01T09:01:02.526Z,1018.20
2017-06-01T09:02:04.166Z,1018.20
2017-06-01T09:03:05.835Z,1018.21
2017-06-01T09:04:07.451Z,1018.20
2017-06-01T09:05:09.180Z,1018.14
2017-06-01T09:06:10.798Z,1018.10
2017-06-01T09:07:12.442Z,1018.05
2017-06-01T09:08:14.084Z,1018.00
2017-06-01T09:09:15.676Z,1017.92
2017-06-01T09:10:17.406Z,1017.91
2017-06-01T09:11:19.049Z,1017.91
2017-06-01T09:12:20.654Z,1017.92
2017-06-01T09:13:22.301Z,1017.86
2017-06-01T09:14:24.007Z,1017.86
2017-06-01T09:15:25.704Z,1017.89
2017-06-01T09:16:27.398Z,1017.88
2017-06-01T09:17:29.081Z,1017.86
2017-06-01T09:18:30.781Z,1017.82
2017-06-01T09:19:32.544Z,1017.75
2017-06-01T09:20:34.246Z,1017.79
2017-06-01T09:21:35.930Z,1017.73
2017-06-01T09:22:37.675Z,1017.71
2017-06-01T09:23:39.326Z,1017.69
2017-06-01T09:24:41.061Z,1017.67
2017-06-01T09:25:42.751Z,1017.70
2017-06-01T09:26:44.452Z,1017.73
2017-06-01T09:27:46.120Z,1017.69
2017-06-01T09:28:47.847Z,1017.69
2017-06-01T09:29:49.587Z,1017.67
2017-06-01T09:30:51.255Z,1017.63
2017-06-01T09:31:52.927Z,1017.62
2017-06-01T09:32:54.580Z,1017.58
2017-06-01T09:33:56.226Z,1017.52
2017-06-01T09:34:58.021Z,1017.48
2017-06-01T09:35:59.648Z,1017.47
2017-06-01T09:37:01.304Z,1017.44
2017-06-01T09:38:02.979Z,1017.39
2017-06-01T09:39:04.672Z,1017.36
2017-06-01T09:40:06.494Z,1017.34
2017-06-01T09:41:08.248Z,1017.30
2017-06-01T09:42:10.009Z,1017.30
2017-06-01T09:43:11.698Z,1017.27
2017-06-01T09:44:13.386Z,1017.29
2017-06-01T09:45:15.129Z,1017.28
2017-06-01T09:46:16.897Z,1017.29
2017-06-01T09:47:18.584Z,1017.20
2017-06-01T09:48:20.253Z,1017.12
2017-06-01T09:49:21.994Z,1017.12
2017-06-01T09:50:23.711Z,1017.18
2017-06-01T09:51:25.438Z,1017.14
2017-06-01T09:52:27.118Z,1017.11
2017-06-01T09:53:28.867Z,1017.10
2017-06-01T09:54:30.493Z,1017.10
2017-06-01T09:55:32.217Z,1017.12
2017-06-01T09:56:33.917Z,1017.08
2017-06-01T09:57:35.559Z,1017.04
2017-06-01T09:58:37.331Z,1017.01
2017-06-01T09:59:39.009Z,1017.01
2017-06-01T10:00:40.690Z,1016.98
2017-06-01T10:01:42.407Z,1016.98
2017-06-01T10:02:44.119Z,1016.95
2017-06-01T10:03:45.845Z,1016.93
2017-06-01T10:04:47.504Z,1016.90
2017-06-01T10:05:49.276Z,1016.86
2017-06-01T10:07:33.526Z,1016.51
2017-06-01T10:08:35.258Z,1016.70
2017-06-01T10:09:36.951Z,1016.77
2017-06-01T10:10:38.610Z,1016.87
2017-06-01T10:11:40.288Z,1016.89
2017-06-01T10:12:42.037Z,1016.83
2017-06-01T10:13:43.704Z,1016.81
2017-06-01T10:14:45.396Z,1016.79
2017-06-01T10:15:47.057Z,1016.79
2017-06-01T10:16:48.743Z,1016.72
2017-06-01T10:17:50.411Z,1016.67
2017-06-01T10:18:52.123Z,1016.64
2017-06-01T10:19:53.765Z,1016.62
2017-06-01T10:20:55.442Z,1016.58
2017-06-01T10:22:36.591Z,1016.33
2017-06-01T10:23:38.190Z,1016.43
2017-06-01T10:24:39.841Z,1016.46
2017-06-01T10:25:41.545Z,1016.46
2017-06-01T10:26:43.238Z,1016.39
2017-06-01T10:27:44.969Z,1016.36
2017-06-01T10:28:46.886Z,1016.36
2017-06-01T10:29:48.588Z,1016.29
2017-06-01T10:30:50.226Z,1016.28
2017-06-01T10:31:51.878Z,1016.27
2017-06-01T10:32:53.642Z,1016.25
2017-06-01T10:33:55.261Z,1016.26
2017-06-01T10:34:56.930Z,1016.24
2017-06-01T10:35:58.576Z,1016.22
2017-06-01T10:37:00.219Z,1016.14
2017-06-01T10:38:01.970Z,1016.13
2017-06-01T10:39:03.606Z,1016.10
2017-06-01T10:40:05.264Z,1016.09
2017-06-01T10:41:06.883Z,1016.07
2017-06-01T10:42:08.549Z,1016.07
2017-06-01T10:43:10.251Z,1016.05
2017-06-01T10:44:11.903Z,1016.04
2017-06-01T10:45:13.565Z,1016.06
2017-06-01T10:46:15.240Z,1016.00
2017-06-01T10:47:16.920Z,1016.05
2017-06-01T10:48:18.658Z,1016.05
2017-06-01T10:49:20.323Z,1016.07
2017-06-01T10:50:21.979Z,1016.23
2017-06-01T10:51:23.665Z,1016.55
2017-06-01T10:52:25.307Z,1016.35
2017-06-01T10:53:27.054Z,1016.15
2017-06-01T10:54:28.716Z,1016.10
2017-06-01T10:55:30.399Z,1016.09
2017-06-01T10:56:32.029Z,1016.10
2017-06-01T10:57:33.695Z,1016.08
2017-06-01T10:58:35.414Z,1016.16
2017-06-01T10:59:37.060Z,1016.15
2017-06-01T11:00:38.736Z,1016.17
2017-06-01T11:01:40.402Z,1016.16
2017-06-01T11:02:42.040Z,1016.17
2017-06-01T11:03:43.776Z,1016.15
2017-06-01T11:04:45.413Z,1016.16
2017-06-01T11:05:47.058Z,1016.14
2017-06-01T11:06:48.716Z,1016.15
2017-06-01T11:07:50.328Z,1016.17
2017-06-01T11:08:52.004Z,1016.19
2017-06-01T11:09:53.615Z,1016.19
2017-06-01T11:10:55.230Z,1016.20
2017-06-01T11:11:56.870Z,1016.23
2017-06-01T11:12:58.535Z,1016.27
2017-06-01T11:14:00.274Z,1016.24
2017-06-01T11:15:01.970Z,1016.25
2017-06-01T11:16:03.665Z,1016.26
2017-06-01T11:17:05.364Z,1016.28
2017-06-01T11:18:07.013Z,1016.28
2017-06-01T11:19:09.054Z,1016.22
2017-06-01T11:20:10.714Z,1016.22
2017-06-01T11:21:12.358Z,1016.22
2017-06-01T11:22:14.050Z,1016.25
2017-06-01T11:23:15.715Z,1016.28
2017-06-01T11:24:17.410Z,1016.27
2017-06-01T11:25:19.091Z,1016.31
2017-06-01T11:26:20.697Z,1016.27
2017-06-01T11:27:22.371Z,1016.27
2017-06-01T11:28:24.016Z,1016.25
2017-06-01T11:29:25.735Z,1016.21
2017-06-01T11:30:27.430Z,1016.20
2017-06-01T11:31:29.101Z,1016.17
2017-06-01T11:32:30.760Z,1016.17
2017-06-01T11:33:32.424Z,1016.21
2017-06-01T11:34:34.111Z,1016.23
2017-06-01T11:35:35.798Z,1016.23
2017-06-01T11:36:37.425Z,1016.24
2017-06-01T11:37:39.135Z,1016.22
2017-06-01T11:38:40.824Z,1016.23
2017-06-01T11:39:42.482Z,1016.22
2017-06-01T11:40:44.134Z,1016.21
2017-06-01T11:41:45.764Z,1016.25
2017-06-01T11:42:47.530Z,1016.26
2017-06-01T11:43:49.343Z,1016.24
2017-06-01T11:44:51.971Z,1016.28
2017-06-01T11:45:53.623Z,1016.24
2017-06-01T11:46:55.280Z,1016.22
2017-06-01T11:47:57.027Z,1016.21
2017-06-01T11:48:58.658Z,1016.19
2017-06-01T11:50:00.294Z,1016.22
2017-06-01T11:51:02.722Z,1016.22
2017-06-01T11:52:04.318Z,1016.24
2017-06-01T11:53:06.013Z,1016.17
2017-06-01T11:54:07.635Z,1016.18
2017-06-01T11:55:09.240Z,1016.18
2017-06-01T11:56:10.855Z,1016.16
2017-06-01T11:57:12.498Z,1016.14
2017-06-01T11:58:14.226Z,1016.16
2017-06-01T11:59:15.862Z,1016.14
2017-06-01T12:00:17.544Z,1016.15
2017-06-01T12:01:20.051Z,1016.16
2017-06-01T12:02:21.635Z,1016.15
2017-06-01T12:03:23.298Z,1016.19
2017-06-01T12:04:24.905Z,1016.16
2017-06-01T12:05:26.591Z,1016.20
2017-06-01T12:06:28.277Z,1016.21
2017-06-01T12:07:29.964Z,1016.19
2017-06-01T12:08:31.627Z,1016.24
2017-06-01T12:09:33.390Z,1016.23
2017-06-01T12:10:35.042Z,1016.22
2017-06-01T12:11:36.761Z,1016.19
2017-06-01T12:12:38.445Z,1016.17
2017-06-01T12:13:40.140Z,1016.17
2017-06-01T12:14:41.805Z,1016.20
2017-06-01T12:15:43.497Z,1016.22
2017-06-01T12:16:45.242Z,1016.20
2017-06-01T12:17:46.915Z,1016.15
2017-06-01T12:18:48.593Z,1016.14
2017-06-01T12:19:50.261Z,1016.11
2017-06-01T12:20:51.916Z,1016.07
2017-06-01T12:21:53.650Z,1016.02
2017-06-01T12:22:55.295Z,1016.01
2017-06-01T12:23:56.941Z,1016.03
2017-06-01T12:24:58.687Z,1016.01
2017-06-01T12:26:00.343Z,1016.03
2017-06-01T12:27:02.062Z,1016.04
2017-06-01T12:28:03.772Z,1016.02
2017-06-01T12:29:05.446Z,1015.96
2017-06-01T12:30:07.109Z,1015.93
2017-06-01T12:31:08.757Z,1015.84
2017-06-01T12:32:10.408Z,1015.85